createdAt,value
2018-03-01T00:00:27.785Z,101218.88
2018-03-01T00:01:33.845Z,101214.66
2018-03-01T00:02:44.106Z,101218.62
2018-03-01T00:03:49.829Z,101202.19
2018-03-01T00:04:55.998Z,101211.61
2018-03-01T00:06:02.199Z,101210.32
2018-03-01T00:07:11.841Z,101206.99
2018-03-01T00:08:17.769Z,101203.15
2018-03-01T00:09:23.935Z,101199.22
2018-03-01T00:10:30.136Z,101208.59
2018-03-01T00:11:36.348Z,101203.20
2018-03-01T00:12:42.556Z,101203.45
2018-03-01T00:13:48.676Z,101194.84
2018-03-01T00:14:54.810Z,101201.02
2018-03-01T00:16:00.994Z,101195.94
2018-03-01T00:17:07.152Z,101197.40
2018-03-01T00:18:13.297Z,101199.69
2018-03-01T00:19:19.474Z,101200.05
2018-03-01T00:20:25.640Z,101199.73
2018-03-01T00:21:31.853Z,101203.34
2018-03-01T00:22:37.381Z,101201.95
2018-03-01T00:23:43.535Z,101200.52
2018-03-01T00:24:49.707Z,101193.08
2018-03-01T00:25:55.916Z,101194.91
2018-03-01T00:27:02.108Z,101189.66
2018-03-01T00:28:08.289Z,101189.92
2018-03-01T00:29:18.086Z,101188.59
2018-03-01T00:30:24.426Z,101188.64
2018-03-01T00:31:30.581Z,101186.86
2018-03-01T00:32:36.767Z,101179.00
2018-03-01T00:33:42.905Z,101187.95
2018-03-01T00:34:49.056Z,101178.60
2018-03-01T00:35:55.235Z,101180.28
2018-03-01T00:37:01.361Z,101177.38
2018-03-01T00:38:07.281Z,101176.82
2018-03-01T00:39:13.481Z,101184.28
2018-03-01T00:40:19.006Z,101189.02
2018-03-01T00:41:25.782Z,101183.52
2018-03-01T00:42:32.004Z,101180.27
2018-03-01T00:43:38.132Z,101184.36
2018-03-01T00:44:51.614Z,101178.88
2018-03-01T00:45:57.915Z,101181.77
2018-03-01T00:47:04.123Z,101180.08
2018-03-01T00:48:10.276Z,101179.22
2018-03-01T00:49:16.455Z,101177.17
2018-03-01T00:50:22.645Z,101180.30
2018-03-01T00:51:28.853Z,101178.25
2018-03-01T00:52:35.183Z,101178.84
2018-03-01T00:53:41.408Z,101177.75
2018-03-01T00:54:47.781Z,101169.80
2018-03-01T00:55:54.054Z,101178.22
2018-03-01T00:57:00.730Z,101174.26
2018-03-01T00:58:08.954Z,101172.34
2018-03-01T00:59:15.105Z,101166.66
2018-03-01T01:00:22.497Z,101166.89
2018-03-01T01:01:28.366Z,101164.92
2018-03-01T01:02:34.583Z,101161.59
2018-03-01T01:03:40.793Z,101163.97
2018-03-01T01:04:47.064Z,101163.99
2018-03-01T01:05:53.339Z,101163.88
2018-03-01T01:07:05.121Z,101163.40
2018-03-01T01:08:11.332Z,101163.77
2018-03-01T01:09:18.458Z,101166.27
2018-03-01T01:10:24.615Z,101158.39
2018-03-01T01:11:30.809Z,101151.45
2018-03-01T01:12:36.991Z,101159.81
2018-03-01T01:13:43.171Z,101141.34
2018-03-01T01:14:49.321Z,101146.28
2018-03-01T01:15:55.538Z,101143.44
2018-03-01T01:17:01.480Z,101145.64
2018-03-01T01:18:07.676Z,101144.57
2018-03-01T01:19:13.852Z,101140.26
2018-03-01T01:20:20.011Z,101138.59
2018-03-01T01:21:26.258Z,101128.71
2018-03-01T01:22:32.404Z,101127.58
2018-03-01T01:23:38.600Z,101124.02
2018-03-01T01:24:44.837Z,101123.19
2018-03-01T01:25:51.194Z,101119.72
2018-03-01T01:27:00.526Z,101116.59
2018-03-01T01:28:08.491Z,101112.45
2018-03-01T01:29:14.677Z,101115.91
2018-03-01T01:30:21.744Z,101117.96
2018-03-01T01:31:27.921Z,101111.89
2018-03-01T01:32:34.260Z,101109.91
2018-03-01T01:33:40.445Z,101112.59
2018-03-01T01:34:46.631Z,101115.02
2018-03-01T01:35:52.855Z,101112.19
2018-03-01T01:36:59.092Z,101109.88
2018-03-01T01:38:05.342Z,101108.11
2018-03-01T01:39:11.468Z,101112.81
2018-03-01T01:40:17.650Z,101112.03
2018-03-01T01:41:23.838Z,101109.20
2018-03-01T01:42:30.522Z,101106.25
2018-03-01T01:43:36.727Z,101107.20
2018-03-01T01:44:42.898Z,101102.56
2018-03-01T01:45:49.149Z,101102.75
2018-03-01T01:46:55.402Z,101103.95
2018-03-01T01:48:01.561Z,101106.05
2018-03-01T01:49:07.759Z,101106.20
2018-03-01T01:50:13.950Z,101104.38
2018-03-01T01:51:20.215Z,101106.43
2018-03-01T01:52:26.484Z,101103.06
2018-03-01T01:53:32.837Z,101099.88
2018-03-01T01:54:39.051Z,101101.55
2018-03-01T01:55:45.218Z,101098.19
2018-03-01T01:56:54.437Z,101094.66
2018-03-01T01:58:00.660Z,101103.20
2018-03-01T01:59:06.854Z,101101.60
2018-03-01T02:00:13.047Z,101100.24
2018-03-01T02:01:19.005Z,101095.20
2018-03-01T02:02:24.967Z,101096.27
2018-03-01T02:03:31.156Z,101092.74
2018-03-01T02:04:37.355Z,101093.25
2018-03-01T02:05:43.511Z,101086.70
2018-03-01T02:06:49.668Z,101089.48
2018-03-01T02:07:55.868Z,101088.91
2018-03-01T02:09:01.781Z,101088.77
2018-03-01T02:10:07.756Z,101083.17
2018-03-01T02:11:13.953Z,101081.95
2018-03-01T02:12:20.206Z,101084.98
2018-03-01T02:13:26.447Z,101082.42
2018-03-01T02:14:33.046Z,101081.61
2018-03-01T02:15:39.581Z,101074.17
2018-03-01T02:16:45.861Z,101079.81
2018-03-01T02:17:52.108Z,101086.20
2018-03-01T02:18:58.281Z,101078.00
2018-03-01T02:20:04.483Z,101074.17
2018-03-01T02:21:10.005Z,101079.30
2018-03-01T02:22:16.368Z,101076.85
2018-03-01T02:23:22.240Z,101075.34
2018-03-01T02:24:28.367Z,101084.58
2018-03-01T02:25:40.299Z,101081.63
2018-03-01T02:26:46.591Z,101081.61
2018-03-01T02:27:52.754Z,101077.33
2018-03-01T02:28:58.887Z,101074.36
2018-03-01T02:30:05.410Z,101074.08
2018-03-01T02:31:11.339Z,101072.20
2018-03-01T02:32:17.546Z,101068.36
2018-03-01T02:33:23.430Z,101060.45
2018-03-01T02:34:29.287Z,101061.77
2018-03-01T02:35:35.451Z,101063.75
2018-03-01T02:36:41.609Z,101066.48
2018-03-01T02:37:47.933Z,101061.16
2018-03-01T02:38:54.082Z,101056.38
2018-03-01T02:40:00.285Z,101057.08
2018-03-01T02:41:06.469Z,101057.61
2018-03-01T02:42:13.061Z,101053.83
2018-03-01T02:43:19.307Z,101058.86
2018-03-01T02:44:25.462Z,101056.59
2018-03-01T02:45:31.612Z,101059.33
2018-03-01T02:46:37.800Z,101051.95
2018-03-01T02:47:44.044Z,101049.91
2018-03-01T02:48:50.238Z,101042.91
2018-03-01T02:49:57.733Z,101045.32
2018-03-01T02:51:04.039Z,101042.44
2018-03-01T02:52:10.309Z,101028.31
2018-03-01T02:53:16.506Z,101036.92
2018-03-01T02:54:27.728Z,101046.00
2018-03-01T02:55:33.898Z,101036.50
2018-03-01T02:56:40.717Z,101035.46
2018-03-01T02:57:46.896Z,101042.72
2018-03-01T02:58:53.335Z,101039.83
2018-03-01T02:59:59.547Z,101038.70
2018-03-01T03:01:05.916Z,101031.17
2018-03-01T03:02:12.059Z,101033.71
2018-03-01T03:03:18.265Z,101037.31
2018-03-01T03:04:24.515Z,101038.45
2018-03-01T03:05:30.715Z,101031.41
2018-03-01T03:06:36.852Z,101032.25
2018-03-01T03:07:43.597Z,101030.63
2018-03-01T03:08:50.392Z,101030.59
2018-03-01T03:09:56.641Z,101026.58
2018-03-01T03:11:02.858Z,101022.66
2018-03-01T03:12:09.064Z,101022.56
2018-03-01T03:13:15.244Z,101019.15
2018-03-01T03:14:21.426Z,101016.89
2018-03-01T03:15:27.661Z,101012.75
2018-03-01T03:16:33.974Z,101013.83
2018-03-01T03:17:40.148Z,101016.55
2018-03-01T03:18:47.200Z,101011.02
2018-03-01T03:19:53.383Z,101014.23
2018-03-01T03:20:59.627Z,101005.09
2018-03-01T03:22:05.814Z,101006.94
2018-03-01T03:23:12.019Z,101014.27
2018-03-01T03:24:18.172Z,101013.58
2018-03-01T03:25:24.364Z,101016.90
2018-03-01T03:26:30.547Z,101020.56
2018-03-01T03:27:36.765Z,101014.17
2018-03-01T03:28:42.997Z,101013.20
2018-03-01T03:29:49.112Z,101015.58
2018-03-01T03:30:55.350Z,101017.42
2018-03-01T03:32:01.661Z,101013.33
2018-03-01T03:33:07.916Z,101006.90
2018-03-01T03:34:14.089Z,101002.01
2018-03-01T03:35:20.210Z,101008.94
2018-03-01T03:36:26.439Z,101006.60
2018-03-01T03:37:34.589Z,101002.11
2018-03-01T03:38:40.832Z,100995.53
2018-03-01T03:39:46.972Z,101000.34
2018-03-01T03:40:53.152Z,101000.39
2018-03-01T03:41:59.315Z,100994.14
2018-03-01T03:43:05.525Z,100990.66
2018-03-01T03:44:11.666Z,101002.20
2018-03-01T03:45:17.813Z,100994.94
2018-03-01T03:46:24.167Z,100992.41
2018-03-01T03:47:30.513Z,100997.09
2018-03-01T03:48:36.708Z,100986.73
2018-03-01T03:49:42.876Z,100982.48
2018-03-01T03:50:49.093Z,100990.84
2018-03-01T03:51:55.285Z,100980.33
2018-03-01T03:53:01.537Z,100979.83
2018-03-01T03:54:07.480Z,100972.74
2018-03-01T03:55:13.664Z,100983.23
2018-03-01T03:56:19.907Z,100979.41
2018-03-01T03:57:26.146Z,100975.16
2018-03-01T03:58:32.336Z,100980.22
2018-03-01T03:59:39.042Z,100975.77
2018-03-01T04:00:45.197Z,100974.70
2018-03-01T04:01:51.419Z,100974.80
2018-03-01T04:02:57.623Z,100972.22
2018-03-01T04:04:03.763Z,100970.36
2018-03-01T04:05:10.224Z,100971.49
2018-03-01T04:06:16.405Z,100966.17
2018-03-01T04:07:22.559Z,100969.69
2018-03-01T04:08:28.755Z,100958.30
2018-03-01T04:09:34.949Z,100957.86
2018-03-01T04:10:41.119Z,100956.17
2018-03-01T04:11:47.437Z,100952.08
2018-03-01T04:12:53.658Z,100945.50
2018-03-01T04:13:59.860Z,100957.30
2018-03-01T04:15:06.026Z,100955.80
2018-03-01T04:16:12.221Z,100953.48
2018-03-01T04:17:18.118Z,100946.77
2018-03-01T04:18:24.282Z,100943.65
2018-03-01T04:19:30.336Z,100948.33
2018-03-01T04:20:36.536Z,100941.30
2018-03-01T04:21:42.713Z,100942.13
2018-03-01T04:22:48.923Z,100945.05
2018-03-01T04:23:55.139Z,100942.73
2018-03-01T04:25:04.006Z,100940.39
2018-03-01T04:26:10.296Z,100944.05
2018-03-01T04:27:16.554Z,100944.38
2018-03-01T04:28:22.733Z,100939.56
2018-03-01T04:29:28.956Z,100937.27
2018-03-01T04:30:35.161Z,100937.99
2018-03-01T04:31:41.381Z,100937.02
2018-03-01T04:32:47.573Z,100931.05
2018-03-01T04:33:53.730Z,100938.29
2018-03-01T04:35:00.227Z,100938.38
2018-03-01T04:36:06.425Z,100934.38
2018-03-01T04:37:13.536Z,100928.56
2018-03-01T04:38:20.135Z,100929.80
2018-03-01T04:39:27.330Z,100933.31
2018-03-01T04:40:33.547Z,100930.28
2018-03-01T04:41:39.780Z,100930.72
2018-03-01T04:42:46.081Z,100928.39
2018-03-01T04:43:52.312Z,100928.24
2018-03-01T04:44:58.499Z,100928.03
2018-03-01T04:46:04.677Z,100926.28
2018-03-01T04:47:10.687Z,100925.09
2018-03-01T04:48:16.913Z,100938.95
2018-03-01T04:49:23.186Z,100937.30
2018-03-01T04:50:29.393Z,100930.66
2018-03-01T04:51:35.559Z,100935.04
2018-03-01T04:52:41.831Z,100934.09
2018-03-01T04:53:48.077Z,100929.66
2018-03-01T04:54:54.283Z,100936.81
2018-03-01T04:56:00.565Z,100934.09
2018-03-01T04:57:08.770Z,100927.86
2018-03-01T04:58:15.057Z,100918.80
2018-03-01T04:59:21.276Z,100925.33
2018-03-01T05:00:27.431Z,100922.78
2018-03-01T05:01:33.629Z,100917.61
2018-03-01T05:02:40.113Z,100918.69
2018-03-01T05:03:46.593Z,100915.37
2018-03-01T05:04:53.672Z,100919.36
2018-03-01T05:05:59.904Z,100911.14
2018-03-01T05:07:06.140Z,100909.62
2018-03-01T05:08:12.388Z,100915.50
2018-03-01T05:09:18.921Z,100914.77
2018-03-01T05:10:26.080Z,100918.83
2018-03-01T05:11:33.158Z,100914.30
2018-03-01T05:12:41.964Z,100910.80
2018-03-01T05:13:49.847Z,100908.16
2018-03-01T05:14:57.720Z,100906.06
2018-03-01T05:16:05.161Z,100909.72
2018-03-01T05:17:12.937Z,100906.80
2018-03-01T05:18:20.411Z,100900.45
2018-03-01T05:19:27.909Z,100899.09
2018-03-01T05:20:35.717Z,100896.31
2018-03-01T05:21:41.917Z,100893.30
2018-03-01T05:22:48.199Z,100892.03
2018-03-01T05:23:54.443Z,100886.62
2018-03-01T05:25:00.637Z,100883.59
2018-03-01T05:26:06.874Z,100885.88
2018-03-01T05:27:13.010Z,100875.27
2018-03-01T05:28:18.959Z,100881.30
2018-03-01T05:29:25.184Z,100877.55
2018-03-01T05:30:31.365Z,100869.06
2018-03-01T05:31:37.628Z,100872.09
2018-03-01T05:32:43.834Z,100874.63
2018-03-01T05:33:49.984Z,100869.31
2018-03-01T05:34:55.763Z,100865.14
2018-03-01T05:36:01.927Z,100865.41
2018-03-01T05:37:08.969Z,100856.58
2018-03-01T05:38:15.146Z,100862.34
2018-03-01T05:39:21.294Z,100857.72
2018-03-01T05:40:27.632Z,100850.82
2018-03-01T05:41:35.761Z,100851.11
2018-03-01T05:42:41.991Z,100847.76
2018-03-01T05:43:48.169Z,100850.73
2018-03-01T05:44:54.384Z,100845.25
2018-03-01T05:46:00.542Z,100846.34
2018-03-01T05:47:06.800Z,100847.44
2018-03-01T05:48:12.939Z,100853.34
2018-03-01T05:49:19.089Z,100847.28
2018-03-01T05:50:25.270Z,100849.83
2018-03-01T05:51:31.467Z,100853.17
2018-03-01T05:52:37.674Z,100857.95
2018-03-01T05:53:43.602Z,100861.77
2018-03-01T05:54:49.764Z,100867.42
2018-03-01T05:55:55.584Z,100858.90
2018-03-01T05:57:02.022Z,100857.13
2018-03-01T05:58:08.212Z,100861.08
2018-03-01T05:59:14.413Z,100860.55
2018-03-01T06:00:20.606Z,100856.89
2018-03-01T06:01:26.765Z,100851.42
2018-03-01T06:02:32.979Z,100857.72
2018-03-01T06:03:39.128Z,100846.84
2018-03-01T06:04:45.265Z,100847.81
2018-03-01T06:05:51.460Z,100851.42
2018-03-01T06:06:57.632Z,100849.13
2018-03-01T06:08:03.764Z,100857.66
2018-03-01T06:09:09.951Z,100847.03
2018-03-01T06:10:16.120Z,100850.93
2018-03-01T06:11:22.280Z,100846.74
2018-03-01T06:12:33.484Z,100847.27
2018-03-01T06:13:39.670Z,100855.64
2018-03-01T06:14:45.801Z,100857.43
2018-03-01T06:15:51.923Z,100861.81
2018-03-01T06:16:58.422Z,100855.28
2018-03-01T06:18:04.583Z,100854.69
2018-03-01T06:19:10.759Z,100854.23
2018-03-01T06:20:16.900Z,100853.64
2018-03-01T06:21:23.063Z,100850.17
2018-03-01T06:22:29.269Z,100856.67
2018-03-01T06:23:35.716Z,100877.75
2018-03-01T06:24:41.937Z,100854.48
2018-03-01T06:25:53.124Z,100859.71
2018-03-01T06:26:59.302Z,100859.91
2018-03-01T06:28:05.521Z,100861.27
2018-03-01T06:29:11.395Z,100856.39
2018-03-01T06:30:17.602Z,100855.03
2018-03-01T06:31:23.757Z,100857.41
2018-03-01T06:32:29.912Z,100852.53
2018-03-01T06:33:36.129Z,100847.22
2018-03-01T06:34:42.319Z,100845.75
2018-03-01T06:35:48.472Z,100851.18
2018-03-01T06:36:54.677Z,100856.35
2018-03-01T06:38:03.681Z,100853.65
2018-03-01T06:39:09.813Z,100851.75
2018-03-01T06:40:15.936Z,100850.50
2018-03-01T06:41:22.127Z,100847.63
2018-03-01T06:42:28.263Z,100856.30
2018-03-01T06:43:35.439Z,100854.67
2018-03-01T06:44:41.596Z,100845.62
2018-03-01T06:45:47.754Z,100852.12
2018-03-01T06:46:53.683Z,100850.70
2018-03-01T06:47:59.971Z,100845.10
2018-03-01T06:49:06.281Z,100855.77
2018-03-01T06:50:12.700Z,100855.02
2018-03-01T06:51:18.928Z,100850.66
2018-03-01T06:52:25.120Z,100843.61
2018-03-01T06:53:31.302Z,100845.58
2018-03-01T06:54:37.504Z,100841.93
2018-03-01T06:55:43.691Z,100837.02
2018-03-01T06:56:49.882Z,100831.88
2018-03-01T06:57:56.013Z,100841.70
2018-03-01T06:59:02.274Z,100833.77
2018-03-01T07:00:08.778Z,100835.02
2018-03-01T07:01:14.942Z,100841.54
2018-03-01T07:02:21.145Z,100845.64
2018-03-01T07:03:27.312Z,100839.09
2018-03-01T07:04:33.471Z,100838.35
2018-03-01T07:05:39.680Z,100832.98
2018-03-01T07:06:45.836Z,100832.14
2018-03-01T07:07:52.040Z,100836.28
2018-03-01T07:08:58.173Z,100837.41
2018-03-01T07:10:04.058Z,100825.06
2018-03-01T07:11:10.382Z,100829.50
2018-03-01T07:12:16.742Z,100823.35
2018-03-01T07:13:23.392Z,100821.64
2018-03-01T07:14:29.522Z,100819.84
2018-03-01T07:15:35.855Z,100816.87
2018-03-01T07:16:47.258Z,100821.19
2018-03-01T07:17:53.458Z,100812.55
2018-03-01T07:18:59.335Z,100816.80
2018-03-01T07:20:04.800Z,100798.09
2018-03-01T07:21:10.705Z,100811.88
2018-03-01T07:22:16.814Z,100802.22
2018-03-01T07:23:32.269Z,100800.11
2018-03-01T07:24:38.453Z,100804.23
2018-03-01T07:25:44.612Z,100805.80
2018-03-01T07:26:52.548Z,100802.30
2018-03-01T07:27:58.618Z,100811.97
2018-03-01T07:29:04.801Z,100805.93
2018-03-01T07:30:10.756Z,100801.98
2018-03-01T07:31:16.903Z,100803.12
2018-03-01T07:32:26.969Z,100809.47
2018-03-01T07:33:33.119Z,100819.06
2018-03-01T07:34:39.320Z,100805.14
2018-03-01T07:35:45.509Z,100805.36
2018-03-01T07:36:51.721Z,100807.73
2018-03-01T07:37:57.871Z,100810.04
2018-03-01T07:39:03.520Z,100815.34
2018-03-01T07:40:09.882Z,100817.22
2018-03-01T07:41:16.072Z,100807.20
2018-03-01T07:42:22.280Z,100807.67
2018-03-01T07:43:28.455Z,100802.59
2018-03-01T07:44:34.570Z,100797.22
2018-03-01T07:45:40.755Z,100804.23
2018-03-01T07:46:46.983Z,100802.02
2018-03-01T07:47:53.143Z,100803.16
2018-03-01T07:48:59.288Z,100788.92
2018-03-01T07:50:05.701Z,100803.98
2018-03-01T07:51:11.833Z,100786.56
2018-03-01T07:52:18.050Z,100784.23
2018-03-01T07:53:24.191Z,100783.97
2018-03-01T07:54:30.356Z,100775.66
2018-03-01T07:55:36.585Z,100786.91
2018-03-01T07:56:43.256Z,100778.78
2018-03-01T07:57:49.465Z,100782.61
2018-03-01T07:58:55.724Z,100774.81
2018-03-01T08:00:01.906Z,100773.16
2018-03-01T08:01:08.148Z,100770.66
2018-03-01T08:02:14.336Z,100775.70
2018-03-01T08:03:20.520Z,100770.13
2018-03-01T08:04:26.702Z,100771.13
2018-03-01T08:05:32.860Z,100769.07
2018-03-01T08:06:39.058Z,100759.25
2018-03-01T08:07:45.196Z,100763.51
2018-03-01T08:08:51.209Z,100766.33
2018-03-01T08:09:57.387Z,100757.39
2018-03-01T08:11:03.538Z,100773.20
2018-03-01T08:12:09.731Z,100754.69
2018-03-01T08:13:15.905Z,100754.39
2018-03-01T08:14:22.119Z,100758.54
2018-03-01T08:15:28.283Z,100753.21
2018-03-01T08:16:34.446Z,100751.47
2018-03-01T08:17:40.630Z,100760.95
2018-03-01T08:18:46.763Z,100751.91
2018-03-01T08:19:52.915Z,100755.05
2018-03-01T08:20:59.098Z,100759.45
2018-03-01T08:22:05.301Z,100758.97
2018-03-01T08:23:11.503Z,100769.66
2018-03-01T08:24:17.734Z,100761.13
2018-03-01T08:25:23.971Z,100764.91
2018-03-01T08:26:30.327Z,100762.59
2018-03-01T08:27:36.458Z,100751.69
2018-03-01T08:28:42.609Z,100751.44
2018-03-01T08:29:48.894Z,100753.51
2018-03-01T08:30:55.089Z,100744.60
2018-03-01T08:32:01.277Z,100746.95
2018-03-01T08:33:07.461Z,100741.07
2018-03-01T08:34:15.873Z,100741.50
2018-03-01T08:35:22.056Z,100739.75
2018-03-01T08:36:28.233Z,100735.55
2018-03-01T08:37:34.420Z,100741.36
2018-03-01T08:38:40.704Z,100739.76
2018-03-01T08:39:46.712Z,100735.30
2018-03-01T08:40:52.928Z,100746.41
2018-03-01T08:41:59.126Z,100741.73
2018-03-01T08:43:04.922Z,100731.54
2018-03-01T08:44:11.146Z,100738.41
2018-03-01T08:45:17.409Z,100739.25
2018-03-01T08:46:23.543Z,100727.77
2018-03-01T08:47:29.772Z,100731.45
2018-03-01T08:48:35.949Z,100730.41
2018-03-01T08:49:42.134Z,100739.00
2018-03-01T08:50:48.294Z,100734.28
2018-03-01T08:51:54.456Z,100725.16
2018-03-01T08:53:00.565Z,100719.81
2018-03-01T08:54:06.741Z,100721.61
2018-03-01T08:55:12.956Z,100719.61
2018-03-01T08:56:19.148Z,100736.35
2018-03-01T08:57:25.302Z,100723.09
2018-03-01T08:58:31.435Z,100742.20
2018-03-01T08:59:37.153Z,100737.45
2018-03-01T09:00:43.342Z,100714.23
2018-03-01T09:01:49.515Z,100713.23
2018-03-01T09:02:55.678Z,100721.42
2018-03-01T09:04:01.824Z,100732.01
2018-03-01T09:05:08.119Z,100728.58
2018-03-01T09:06:14.253Z,100715.64
2018-03-01T09:07:20.392Z,100714.28
2018-03-01T09:08:26.552Z,100715.25
2018-03-01T09:09:32.696Z,100714.89
2018-03-01T09:10:38.850Z,100720.98
2018-03-01T09:11:45.020Z,100710.97
2018-03-01T09:12:51.176Z,100704.22
2018-03-01T09:13:57.382Z,100705.63
2018-03-01T09:15:03.601Z,100708.14
2018-03-01T09:16:09.797Z,100706.50
2018-03-01T09:17:15.968Z,100712.75
2018-03-01T09:18:22.202Z,100702.80
2018-03-01T09:19:28.435Z,100702.44
2018-03-01T09:20:34.552Z,100700.95
2018-03-01T09:21:40.722Z,100695.85
2018-03-01T09:22:46.880Z,100691.94
2018-03-01T09:23:53.072Z,100694.14
2018-03-01T09:24:59.253Z,100699.47
2018-03-01T09:26:08.265Z,100690.14
2018-03-01T09:27:14.417Z,100692.72
2018-03-01T09:28:20.588Z,100694.71
2018-03-01T09:29:26.751Z,100694.34
2018-03-01T09:30:32.996Z,100691.94
2018-03-01T09:31:39.433Z,100688.67
2018-03-01T09:32:45.582Z,100688.63
2018-03-01T09:33:51.808Z,100681.62
2018-03-01T09:34:58.030Z,100695.05
2018-03-01T09:36:04.208Z,100693.94
2018-03-01T09:37:10.460Z,100670.72
2018-03-01T09:38:16.866Z,100681.61
2018-03-01T09:39:23.195Z,100663.81
2018-03-01T09:40:29.374Z,100668.73
2018-03-01T09:41:35.568Z,100679.20
2018-03-01T09:42:41.712Z,100663.94
2018-03-01T09:43:47.921Z,100660.77
2018-03-01T09:44:54.104Z,100654.02
2018-03-01T09:46:00.281Z,100647.58
2018-03-01T09:47:06.617Z,100647.13
2018-03-01T09:48:13.036Z,100635.98
2018-03-01T09:49:19.205Z,100641.27
2018-03-01T09:50:25.398Z,100636.48
2018-03-01T09:51:31.564Z,100629.09
2018-03-01T09:52:37.780Z,100635.41
2018-03-01T09:53:43.984Z,100625.94
2018-03-01T09:54:50.154Z,100617.95
2018-03-01T09:55:56.384Z,100612.05
2018-03-01T09:57:02.597Z,100615.11
2018-03-01T09:58:08.606Z,100601.47
2018-03-01T09:59:14.793Z,100606.33
2018-03-01T10:00:20.949Z,100614.53
2018-03-01T10:01:27.173Z,100609.05
2018-03-01T10:02:33.372Z,100609.38
2018-03-01T10:03:39.565Z,100603.99
2018-03-01T10:04:45.721Z,100592.40
2018-03-01T10:05:51.863Z,100622.24
2018-03-01T10:06:58.026Z,100632.67
2018-03-01T10:08:04.192Z,100602.52
2018-03-01T10:09:14.451Z,100593.63
2018-03-01T10:10:20.681Z,100610.92
2018-03-01T10:11:26.830Z,100609.29
2018-03-01T10:12:33.021Z,100607.44
2018-03-01T10:13:39.408Z,100607.01
2018-03-01T10:14:45.572Z,100595.57
2018-03-01T10:15:51.783Z,100608.12
2018-03-01T10:16:57.629Z,100602.34
2018-03-01T10:18:03.908Z,100595.09
2018-03-01T10:19:10.099Z,100609.05
2018-03-01T10:20:16.257Z,100601.14
2018-03-01T10:21:22.434Z,100592.62
2018-03-01T10:22:28.578Z,100588.34
2018-03-01T10:23:34.751Z,100580.82
2018-03-01T10:24:40.962Z,100588.61
2018-03-01T10:25:47.143Z,100571.58
2018-03-01T10:26:53.351Z,100576.22
2018-03-01T10:27:59.785Z,100569.51
2018-03-01T10:29:05.948Z,100569.36
2018-03-01T10:30:12.108Z,100570.55
2018-03-01T10:31:18.389Z,100569.71
2018-03-01T10:32:24.589Z,100572.52
2018-03-01T10:33:35.785Z,100584.58
2018-03-01T10:34:41.633Z,100563.89
2018-03-01T10:35:47.833Z,100572.75
2018-03-01T10:36:53.963Z,100580.94
2018-03-01T10:38:00.273Z,100569.36
2018-03-01T10:39:05.784Z,100558.20
2018-03-01T10:40:11.970Z,100568.16
2018-03-01T10:41:18.113Z,100563.94
2018-03-01T10:42:24.248Z,100564.13
2018-03-01T10:43:30.409Z,100573.01
2018-03-01T10:44:36.603Z,100565.58
2018-03-01T10:45:42.777Z,100563.50
2018-03-01T10:46:48.965Z,100579.91
2018-03-01T10:47:55.183Z,100555.91
2018-03-01T10:49:01.372Z,100557.77
2018-03-01T10:50:07.566Z,100564.61
2018-03-01T10:51:13.702Z,100546.16
2018-03-01T10:52:19.893Z,100563.58
2018-03-01T10:53:26.073Z,100560.75
2018-03-01T10:54:33.583Z,100559.34
2018-03-01T10:55:39.757Z,100540.42
2018-03-01T10:56:45.600Z,100549.28
2018-03-01T10:57:51.747Z,100547.76
2018-03-01T10:58:57.909Z,100532.53
2018-03-01T11:00:03.758Z,100526.95
2018-03-01T11:01:15.157Z,100532.73
2018-03-01T11:02:21.350Z,100530.67
2018-03-01T11:03:27.493Z,100522.02
2018-03-01T11:04:33.626Z,100525.52
2018-03-01T11:05:39.760Z,100514.25
2018-03-01T11:06:45.990Z,100507.53
2018-03-01T11:07:52.180Z,100510.77
2018-03-01T11:08:58.393Z,100511.13
2018-03-01T11:10:04.386Z,100486.55
2018-03-01T11:11:10.431Z,100498.11
2018-03-01T11:12:17.216Z,100497.09
2018-03-01T11:13:23.250Z,100500.88
2018-03-01T11:14:29.983Z,100499.30
2018-03-01T11:15:36.173Z,100495.94
2018-03-01T11:16:42.363Z,100504.48
2018-03-01T11:17:48.658Z,100494.50
2018-03-01T11:18:54.647Z,100482.09
2018-03-01T11:20:00.620Z,100494.09
2018-03-01T11:21:06.586Z,100491.97
2018-03-01T11:22:12.769Z,100494.53
2018-03-01T11:23:18.708Z,100485.26
2018-03-01T11:24:24.934Z,100483.03
2018-03-01T11:25:31.143Z,100483.27
2018-03-01T11:26:37.355Z,100475.69
2018-03-01T11:27:43.555Z,100482.33
2018-03-01T11:28:49.769Z,100486.60
2018-03-01T11:29:55.983Z,100480.92
2018-03-01T11:31:02.119Z,100483.42
2018-03-01T11:32:08.320Z,100471.39
2018-03-01T11:33:14.533Z,100471.23
2018-03-01T11:34:20.735Z,100463.61
2018-03-01T11:35:26.928Z,100465.99
2018-03-01T11:36:33.112Z,100462.25
2018-03-01T11:37:41.156Z,100465.56
2018-03-01T11:38:47.372Z,100458.08
2018-03-01T11:39:53.426Z,100466.84
2018-03-01T11:40:59.598Z,100459.95
2018-03-01T11:42:05.802Z,100462.47
2018-03-01T11:43:12.049Z,100458.48
2018-03-01T11:44:18.327Z,100449.14
2018-03-01T11:45:24.561Z,100436.09
2018-03-01T11:46:30.831Z,100435.27
2018-03-01T11:47:37.068Z,100438.17
2018-03-01T11:48:43.266Z,100430.47
2018-03-01T11:49:49.460Z,100441.15
2018-03-01T11:50:55.606Z,100436.48
2018-03-01T11:52:01.800Z,100436.96
2018-03-01T11:53:08.021Z,100446.61
2018-03-01T11:54:19.019Z,100449.13
2018-03-01T11:55:25.197Z,100442.59
2018-03-01T11:56:31.389Z,100432.78
2018-03-01T11:57:37.585Z,100429.50
2018-03-01T11:58:43.769Z,100432.64
2018-03-01T11:59:50.024Z,100418.72
2018-03-01T12:00:56.238Z,100418.45
2018-03-01T12:02:02.463Z,100424.45
2018-03-01T12:03:08.738Z,100421.62
2018-03-01T12:04:14.941Z,100417.34
2018-03-01T12:05:21.146Z,100412.72
2018-03-01T12:06:27.552Z,100416.56
2018-03-01T12:07:33.771Z,100412.07
2018-03-01T12:08:40.133Z,100410.52
2018-03-01T12:09:46.399Z,100416.38
2018-03-01T12:10:52.698Z,100411.98
2018-03-01T12:11:58.838Z,100405.15
2018-03-01T12:13:05.038Z,100402.30
2018-03-01T12:14:11.231Z,100405.16
2018-03-01T12:15:17.557Z,100404.69
2018-03-01T12:16:23.721Z,100401.34
2018-03-01T12:17:29.952Z,100392.84
2018-03-01T12:18:36.129Z,100391.31
2018-03-01T12:19:42.448Z,100379.13
2018-03-01T12:20:48.722Z,100376.67
2018-03-01T12:21:54.974Z,100397.08
2018-03-01T12:23:01.211Z,100377.32
2018-03-01T12:24:07.387Z,100369.55
2018-03-01T12:25:13.584Z,100373.81
2018-03-01T12:26:19.741Z,100373.10
2018-03-01T12:27:26.040Z,100361.30
2018-03-01T12:28:32.224Z,100361.87
2018-03-01T12:29:38.467Z,100358.22
2018-03-01T12:30:44.698Z,100359.60
2018-03-01T12:31:50.916Z,100364.27
2018-03-01T12:32:57.152Z,100355.51
2018-03-01T12:34:03.404Z,100361.41
2018-03-01T12:35:09.211Z,100352.73
2018-03-01T12:36:15.413Z,100366.88
2018-03-01T12:37:21.661Z,100361.54